Airports United Kingdom London Stansted Airport

London Stansted Airport (EGSS / STN)

Facts about London Stansted Airport

Name London Stansted Airport
City London
Country United Kingdom
ICAO code EGSS
IATA code STN
Elevation 106.0704 meters (348 feet)

Weather

METAR

Metar data retrieved Friday, 19 July 2024 at 23:55 UTC (17 minutes ago)

EGSS 192320Z AUTO 16003KT 9999 NCD 20/15 Q1013

Live traffic

Navigraph Charts (account required)